Time;durP1;ratioP1;P1;durP2;ratioP2;P2;SDS_P1;SDS_P2;PMS_P1;PMS_P2;Temp;Humidity;BMP_temperature;BMP_pressure;BME280_temperature;BME280_humidity;BME280_pressure;Samples;Min_cycle;Max_cycle;Signal;HPM_P1;HPM_P2
2021/09/27 00:00:00;;;;;;;;;18.00;18.00;;;;;;;;5042293;28;8864;-79
2021/09/27 00:02:27;;;;;;;;;22.00;18.00;;;;;;;;5032127;28;8882;-80
2021/09/27 00:04:55;;;;;;;;;21.50;18.50;;;;;;;;5036666;28;8877;-76
2021/09/27 00:07:22;;;;;;;;;27.50;24.25;;;;;;;;5027310;28;8872;-75
2021/09/27 00:09:49;;;;;;;;;21.75;21.75;;;;;;;;5038186;28;8901;-77
2021/09/27 00:12:17;;;;;;;;;26.00;22.75;;;;;;;;5037868;28;8851;-76
2021/09/27 00:14:45;;;;;;;;;21.75;21.75;;;;;;;;5042565;28;8854;-81
2021/09/27 00:17:13;;;;;;;;;19.00;19.00;;;;;;;;5029400;28;8888;-77
2021/09/27 00:19:40;;;;;;;;;20.50;17.75;;;;;;;;5039547;28;8866;-79
2021/09/27 00:22:08;;;;;;;;;16.25;15.50;;;;;;;;5033635;28;8857;-77
2021/09/27 00:24:35;;;;;;;;;18.25;17.00;;;;;;;;5043254;28;8884;-75
2021/09/27 00:27:03;;;;;;;;;15.75;15.75;;;;;;;;5041568;28;8850;-73
2021/09/27 00:29:31;;;;;;;;;20.75;16.25;;;;;;;;5036391;28;8994;-76
2021/09/27 00:31:59;;;;;;;;;22.50;20.50;;;;;;;;5021131;28;8844;-75
2021/09/27 00:34:26;;;;;;;;;21.00;21.00;;;;;;;;5037339;28;8870;-76
2021/09/27 00:36:54;;;;;;;;;25.75;23.75;;;;;;;;5035183;28;8881;-74
2021/09/27 00:39:21;;;;;;;;;19.75;19.75;;;;;;;;5036129;28;8860;-82
2021/09/27 00:41:48;;;;;;;;;23.00;22.00;;;;;;;;5029229;28;8850;-81
2021/09/27 00:44:16;;;;;;;;;20.50;17.75;;;;;;;;5040400;28;8850;-74
2021/09/27 00:46:43;;;;;;;;;18.25;17.50;;;;;;;;5036396;28;8870;-80
2021/09/27 00:49:12;;;;;;;;;22.25;18.25;;;;;;;;5032741;28;8856;-76
2021/09/27 00:51:43;;;;;;;;;18.75;17.75;;;;;;;;5038367;28;8851;-75
2021/09/27 00:54:13;;;;;;;;;20.75;17.25;;;;;;;;5026449;28;8876;-76
2021/09/27 00:56:43;;;;;;;;;18.25;18.25;;;;;;;;5043601;28;8870;-76
2021/09/27 00:59:10;;;;;;;;;20.25;18.75;;;;;;;;5041903;28;8892;-81
2021/09/27 01:01:37;;;;;;;;;15.25;14.00;;;;;;;;5036612;28;8812;-75
2021/09/27 01:04:06;;;;;;;;;18.00;18.00;;;;;;;;5044046;28;8918;-75
2021/09/27 01:06:59;;;;;;;;;18.50;18.00;;;;;;;;5019550;28;8876;-77
2021/09/27 01:09:35;;;;;;;;;19.75;19.75;;;;;;;;5031577;28;8904;-75
2021/09/27 01:12:17;;;;;;;;;21.50;19.75;;;;;;;;5037680;28;8859;-81
2021/09/27 01:15:20;;;;;;;;;21.25;19.75;;;;;;;;5038404;28;8862;-78
2021/09/27 01:17:55;;;;;;;;;19.25;16.75;;;;;;;;5026628;28;8870;-79
2021/09/27 01:20:43;;;;;;;;;18.00;17.50;;;;;;;;5044320;28;8893;-76
2021/09/27 01:23:34;;;;;;;;;24.50;21.50;;;;;;;;5033354;28;8880;-75
2021/09/27 01:26:19;;;;;;;;;19.25;19.25;;;;;;;;5033516;28;8934;-79
2021/09/27 01:29:04;;;;;;;;;21.75;17.75;;;;;;;;5039839;28;8916;-78
2021/09/27 01:32:07;;;;;;;;;17.75;17.50;;;;;;;;5038788;28;8818;-79
2021/09/27 01:34:38;;;;;;;;;20.50;19.50;;;;;;;;5029773;28;8900;-75
2021/09/27 01:37:12;;;;;;;;;18.25;18.25;;;;;;;;5044247;28;8984;-81
2021/09/27 01:39:52;;;;;;;;;23.25;18.25;;;;;;;;5041933;28;8866;-76
2021/09/27 01:42:22;;;;;;;;;20.00;20.00;;;;;;;;5036228;28;8860;-78
2021/09/27 01:44:55;;;;;;;;;19.50;18.50;;;;;;;;5025494;28;8875;-75
2021/09/27 01:47:26;;;;;;;;;21.00;19.25;;;;;;;;5035151;28;8876;-78
2021/09/27 01:50:01;;;;;;;;;19.75;19.25;;;;;;;;5031392;28;8895;-73
2021/09/27 01:52:32;;;;;;;;;20.75;20.75;;;;;;;;5030569;28;9003;-74
2021/09/27 01:55:04;;;;;;;;;20.75;18.25;;;;;;;;5037784;28;8854;-82
2021/09/27 01:57:38;;;;;;;;;21.25;20.00;;;;;;;;5041786;28;8872;-74
2021/09/27 02:00:11;;;;;;;;;19.50;19.00;;;;;;;;5026404;28;8972;-76
2021/09/27 02:02:44;;;;;;;;;20.25;19.75;;;;;;;;5044739;28;8865;-77
2021/09/27 02:05:17;;;;;;;;;19.75;19.75;;;;;;;;5032573;28;8876;-77
2021/09/27 02:07:51;;;;;;;;;24.25;20.75;;;;;;;;5037156;28;8896;-75
2021/09/27 02:10:23;;;;;;;;;22.00;19.50;;;;;;;;5040462;28;8870;-76
2021/09/27 02:12:58;;;;;;;;;22.50;19.25;;;;;;;;5040102;28;8866;-75
2021/09/27 02:15:30;;;;;;;;;22.75;19.00;;;;;;;;5040587;28;8834;-82
2021/09/27 02:18:01;;;;;;;;;24.75;21.00;;;;;;;;5033472;28;8886;-79
2021/09/27 02:20:33;;;;;;;;;22.00;22.00;;;;;;;;5035275;28;8864;-75
2021/09/27 02:23:05;;;;;;;;;21.50;21.50;;;;;;;;5038169;28;8882;-76
2021/09/27 02:25:35;;;;;;;;;20.25;20.25;;;;;;;;5023345;28;8895;-78
2021/09/27 02:28:05;;;;;;;;;24.75;22.25;;;;;;;;5044396;28;8858;-75
2021/09/27 02:30:37;;;;;;;;;25.50;20.00;;;;;;;;5039648;28;8818;-79
2021/09/27 02:33:09;;;;;;;;;26.50;26.50;;;;;;;;5041507;28;8973;-81
2021/09/27 02:35:44;;;;;;;;;19.25;17.75;;;;;;;;5038912;28;8865;-81
2021/09/27 02:38:15;;;;;;;;;21.50;20.50;;;;;;;;5037921;28;8864;-79
2021/09/27 02:40:48;;;;;;;;;27.50;25.25;;;;;;;;5037643;28;8876;-77
2021/09/27 02:43:15;;;;;;;;;19.25;19.25;;;;;;;;5033121;28;8854;-78
2021/09/27 02:45:46;;;;;;;;;20.50;20.50;;;;;;;;5030657;28;9008;-77
2021/09/27 02:48:19;;;;;;;;;23.75;21.50;;;;;;;;5033652;28;8994;-78
2021/09/27 02:50:50;;;;;;;;;21.50;20.75;;;;;;;;5031168;28;8883;-76
2021/09/27 02:53:20;;;;;;;;;22.25;21.00;;;;;;;;5024187;28;8862;-77
2021/09/27 02:56:06;;;;;;;;;17.75;17.75;;;;;;;;5022413;28;9007;-76
2021/09/27 02:58:39;;;;;;;;;20.75;20.00;;;;;;;;5029903;28;8872;-77
2021/09/27 03:01:13;;;;;;;;;24.75;19.00;;;;;;;;5038474;28;9565;-77
2021/09/27 03:03:51;;;;;;;;;26.50;24.75;;;;;;;;5039951;28;8900;-77
2021/09/27 03:06:33;;;;;;;;;21.50;21.50;;;;;;;;5035674;28;8877;-76
2021/09/27 03:09:06;;;;;;;;;25.00;23.50;;;;;;;;5036151;28;8913;-75
2021/09/27 03:11:47;;;;;;;;;22.25;20.75;;;;;;;;5041043;28;8980;-75
2021/09/27 03:14:24;;;;;;;;;21.75;21.25;;;;;;;;5047333;28;8866;-79
2021/09/27 03:16:57;;;;;;;;;21.00;19.75;;;;;;;;5033767;28;8857;-76
2021/09/27 03:19:44;;;;;;;;;24.75;22.00;;;;;;;;5037738;28;8876;-77
2021/09/27 03:22:21;;;;;;;;;23.00;22.50;;;;;;;;5040086;28;9026;-74
2021/09/27 03:24:59;;;;;;;;;19.33;19.33;;;;;;;;5029296;28;8860;-75
2021/09/27 03:27:37;;;;;;;;;22.25;20.75;;;;;;;;5031093;28;8865;-80
2021/09/27 03:30:12;;;;;;;;;20.50;20.50;;;;;;;;5040016;28;8840;-78
2021/09/27 03:32:51;;;;;;;;;21.00;19.50;;;;;;;;5014040;28;8888;-76
2021/09/27 03:35:24;;;;;;;;;20.00;18.75;;;;;;;;5045011;28;8866;-74
2021/09/27 03:38:00;;;;;;;;;24.25;19.75;;;;;;;;5041992;28;8857;-78
2021/09/27 03:40:46;;;;;;;;;24.75;21.00;;;;;;;;5035404;28;8895;-79
2021/09/27 03:43:20;;;;;;;;;22.00;20.75;;;;;;;;5031569;28;8828;-74
2021/09/27 03:45:53;;;;;;;;;21.50;21.50;;;;;;;;5027384;28;8857;-75
2021/09/27 03:48:25;;;;;;;;;21.75;20.50;;;;;;;;5031051;28;8857;-78
2021/09/27 03:50:56;;;;;;;;;18.50;18.50;;;;;;;;5033474;28;9586;-74
2021/09/27 03:53:29;;;;;;;;;18.75;18.25;;;;;;;;5031561;28;8898;-76
2021/09/27 03:56:02;;;;;;;;;20.25;17.25;;;;;;;;5030416;28;8865;-74
2021/09/27 03:58:33;;;;;;;;;19.00;19.00;;;;;;;;5042007;28;8890;-74
2021/09/27 04:01:05;;;;;;;;;20.50;19.50;;;;;;;;5041148;28;8836;-79
2021/09/27 04:03:54;;;;;;;;;23.00;19.75;;;;;;;;5015237;28;8879;-80
2021/09/27 04:06:46;;;;;;;;;23.00;23.00;;;;;;;;5040401;28;8943;-73
2021/09/27 04:09:23;;;;;;;;;23.00;21.50;;;;;;;;5041969;28;8858;-79
2021/09/27 04:12:03;;;;;;;;;23.25;21.00;;;;;;;;5028195;28;8991;-79
2021/09/27 04:14:37;;;;;;;;;22.00;20.25;;;;;;;;5037219;28;8878;-77
2021/09/27 04:17:07;;;;;;;;;22.25;19.00;;;;;;;;5030901;28;8972;-79
2021/09/27 04:19:42;;;;;;;;;23.50;21.25;;;;;;;;5034507;28;8892;-76
2021/09/27 04:22:16;;;;;;;;;22.25;20.75;;;;;;;;5030170;28;8869;-74
2021/09/27 04:24:55;;;;;;;;;16.50;16.50;;;;;;;;5024952;28;8900;-77
2021/09/27 04:27:35;;;;;;;;;21.50;19.00;;;;;;;;5038839;28;9631;-71
2021/09/27 04:30:25;;;;;;;;;22.50;22.50;;;;;;;;5030449;28;8884;-71
2021/09/27 04:33:21;;;;;;;;;19.75;19.75;;;;;;;;5004210;28;8832;-72
2021/09/27 04:35:53;;;;;;;;;18.75;18.00;;;;;;;;5032582;28;8888;-72
2021/09/27 04:38:21;;;;;;;;;21.00;21.00;;;;;;;;5034495;28;8862;-75
2021/09/27 04:41:25;;;;;;;;;24.25;21.25;;;;;;;;5040330;28;8917;-77
2021/09/27 04:43:59;;;;;;;;;23.00;20.00;;;;;;;;4998091;28;9623;-75
2021/09/27 04:46:31;;;;;;;;;20.50;19.25;;;;;;;;5032547;28;8865;-78
2021/09/27 04:49:05;;;;;;;;;22.00;20.50;;;;;;;;5041429;28;8977;-72
2021/09/27 04:51:50;;;;;;;;;21.75;20.00;;;;;;;;5038934;28;8854;-75
2021/09/27 04:54:50;;;;;;;;;23.00;22.00;;;;;;;;5040234;28;9652;-75
2021/09/27 04:57:26;;;;;;;;;25.50;22.00;;;;;;;;5043594;28;8866;-76
2021/09/27 05:00:12;;;;;;;;;23.75;21.50;;;;;;;;5040610;28;9534;-74
2021/09/27 05:02:49;;;;;;;;;26.00;23.75;;;;;;;;5022964;28;8921;-77
2021/09/27 05:05:22;;;;;;;;;20.75;19.25;;;;;;;;5030230;28;8884;-76
2021/09/27 05:08:08;;;;;;;;;24.00;24.00;;;;;;;;5034938;28;8898;-79
2021/09/27 05:10:54;;;;;;;;;19.50;19.00;;;;;;;;5030109;28;8866;-74
2021/09/27 05:13:38;;;;;;;;;16.50;16.00;;;;;;;;5033279;28;8876;-76
2021/09/27 05:16:17;;;;;;;;;18.50;17.50;;;;;;;;5015300;28;8882;-76
2021/09/27 05:19:21;;;;;;;;;19.75;19.75;;;;;;;;5035462;28;8859;-76
2021/09/27 05:22:16;;;;;;;;;21.75;19.75;;;;;;;;4952108;28;8871;-78
2021/09/27 05:25:00;;;;;;;;;17.50;15.50;;;;;;;;5033474;28;9705;-78
2021/09/27 05:27:48;;;;;;;;;16.50;16.25;;;;;;;;5030187;28;8845;-80
2021/09/27 05:30:30;;;;;;;;;19.25;19.25;;;;;;;;5033789;28;8874;-78
2021/09/27 05:33:02;;;;;;;;;17.25;17.25;;;;;;;;5042306;28;8859;-78
2021/09/27 05:35:54;;;;;;;;;21.50;21.50;;;;;;;;5038645;28;8865;-83
2021/09/27 05:38:30;;;;;;;;;19.00;19.00;;;;;;;;5020806;28;8888;-74
2021/09/27 05:41:07;;;;;;;;;22.25;19.50;;;;;;;;5012385;28;8874;-73
2021/09/27 05:43:55;;;;;;;;;17.00;11.00;;;;;;;;5038598;28;8919;-75
2021/09/27 05:46:42;;;;;;;;;17.25;17.25;;;;;;;;5041367;28;8870;-73
2021/09/27 05:49:14;;;;;;;;;18.00;18.00;;;;;;;;5025111;28;8845;-73
2021/09/27 05:51:47;;;;;;;;;15.75;11.75;;;;;;;;5009930;28;8848;-73
2021/09/27 05:54:21;;;;;;;;;16.00;16.00;;;;;;;;5036733;28;8984;-72
2021/09/27 05:56:56;;;;;;;;;21.00;18.00;;;;;;;;5023443;28;8910;-73
2021/09/27 05:59:29;;;;;;;;;18.50;18.25;;;;;;;;5030251;28;8854;-73
2021/09/27 06:02:03;;;;;;;;;13.00;13.00;;;;;;;;5039058;28;8782;-72
2021/09/27 06:04:42;;;;;;;;;14.75;13.00;;;;;;;;5041915;28;8924;-73
2021/09/27 06:07:13;;;;;;;;;14.50;14.50;;;;;;;;5037687;28;8882;-73
2021/09/27 06:09:52;;;;;;;;;11.50;11.50;;;;;;;;5042463;28;8904;-73
2021/09/27 06:12:24;;;;;;;;;7.25;7.25;;;;;;;;5030455;28;8892;-73
2021/09/27 06:14:53;;;;;;;;;14.50;13.25;;;;;;;;5043101;28;8964;-73
2021/09/27 06:17:49;;;;;;;;;15.75;14.00;;;;;;;;5042483;28;8970;-73
2021/09/27 06:20:21;;;;;;;;;14.75;13.50;;;;;;;;5027569;28;8880;-73
2021/09/27 06:23:03;;;;;;;;;10.00;10.00;;;;;;;;5026366;28;8857;-73
2021/09/27 06:25:36;;;;;;;;;13.75;13.00;;;;;;;;5026894;28;8910;-74
2021/09/27 06:28:09;;;;;;;;;13.00;10.75;;;;;;;;5024001;28;8837;-73
2021/09/27 06:30:41;;;;;;;;;7.00;7.00;;;;;;;;5040990;28;8811;-73
2021/09/27 06:33:16;;;;;;;;;12.50;12.50;;;;;;;;5043170;28;8871;-72
2021/09/27 06:35:47;;;;;;;;;9.50;9.50;;;;;;;;5031674;28;8891;-72
2021/09/27 06:38:15;;;;;;;;;14.50;13.00;;;;;;;;5030789;28;8900;-73
2021/09/27 06:40:46;;;;;;;;;9.50;9.50;;;;;;;;5039438;28;8857;-73
2021/09/27 06:43:16;;;;;;;;;18.75;18.00;;;;;;;;5038610;28;8912;-73
2021/09/27 06:45:44;;;;;;;;;27.75;26.75;;;;;;;;5041941;28;8858;-74
2021/09/27 06:48:13;;;;;;;;;17.00;15.00;;;;;;;;5028819;28;8928;-72
2021/09/27 06:50:40;;;;;;;;;25.75;21.75;;;;;;;;5040075;28;8899;-73
2021/09/27 06:53:08;;;;;;;;;19.75;19.75;;;;;;;;5040095;28;8849;-73
2021/09/27 06:55:35;;;;;;;;;17.50;17.50;;;;;;;;5042844;28;8943;-72
2021/09/27 06:58:02;;;;;;;;;26.00;23.75;;;;;;;;5034921;28;8888;-74
2021/09/27 07:00:31;;;;;;;;;15.75;14.25;;;;;;;;5037738;28;9575;-74
2021/09/27 07:02:58;;;;;;;;;18.25;18.25;;;;;;;;5038133;28;8882;-74
2021/09/27 07:05:27;;;;;;;;;19.00;18.50;;;;;;;;5044889;28;8878;-73
2021/09/27 07:07:55;;;;;;;;;16.75;15.25;;;;;;;;5038831;28;8912;-73
2021/09/27 07:10:24;;;;;;;;;10.50;9.75;;;;;;;;5045223;28;9040;-73
2021/09/27 07:12:52;;;;;;;;;13.00;9.00;;;;;;;;5046006;28;8997;-74
2021/09/27 07:15:20;;;;;;;;;27.75;26.25;;;;;;;;5038036;28;8854;-73
2021/09/27 07:17:47;;;;;;;;;22.75;21.00;;;;;;;;5045655;28;8919;-73
2021/09/27 07:20:17;;;;;;;;;27.25;27.00;;;;;;;;5032629;28;8870;-73
2021/09/27 07:22:46;;;;;;;;;52.75;43.75;;;;;;;;5044741;28;9023;-73
2021/09/27 07:25:15;;;;;;;;;43.00;37.00;;;;;;;;5027934;28;8868;-73
2021/09/27 07:27:42;;;;;;;;;26.00;25.00;;;;;;;;5007960;28;8910;-73
2021/09/27 07:30:13;;;;;;;;;14.50;14.50;;;;;;;;5025094;28;8884;-73
2021/09/27 07:32:41;;;;;;;;;43.00;38.25;;;;;;;;5044487;28;8854;-73
2021/09/27 07:35:09;;;;;;;;;20.25;20.25;;;;;;;;5025436;28;8888;-72
2021/09/27 07:37:38;;;;;;;;;14.75;13.75;;;;;;;;5028106;28;8991;-72
2021/09/27 07:40:10;;;;;;;;;10.75;10.00;;;;;;;;5044804;28;8862;-73
2021/09/27 07:42:37;;;;;;;;;14.50;12.25;;;;;;;;5045734;28;8974;-73
2021/09/27 07:45:06;;;;;;;;;15.50;14.00;;;;;;;;5038088;28;8858;-75
2021/09/27 07:47:33;;;;;;;;;17.00;15.50;;;;;;;;5040557;28;8850;-75
2021/09/27 07:50:00;;;;;;;;;21.00;21.00;;;;;;;;5039627;28;9009;-75
2021/09/27 07:52:27;;;;;;;;;14.25;14.25;;;;;;;;5033619;28;8872;-75
2021/09/27 07:54:55;;;;;;;;;31.25;29.50;;;;;;;;5044698;28;8853;-74
2021/09/27 07:57:23;;;;;;;;;48.00;40.50;;;;;;;;5036847;28;8890;-75
2021/09/27 07:59:53;;;;;;;;;51.00;43.00;;;;;;;;5044007;28;9686;-75
2021/09/27 08:02:20;;;;;;;;;29.50;25.25;;;;;;;;5042645;28;9030;-74
2021/09/27 08:04:48;;;;;;;;;16.75;15.75;;;;;;;;5044767;28;8968;-75
2021/09/27 08:07:16;;;;;;;;;34.75;32.00;;;;;;;;5026336;28;8866;-75
2021/09/27 08:09:43;;;;;;;;;19.50;18.25;;;;;;;;5043772;28;8873;-74
2021/09/27 08:12:10;;;;;;;;;18.75;16.00;;;;;;;;5044507;28;8872;-74
2021/09/27 08:14:39;;;;;;;;;49.75;40.25;;;;;;;;5043143;28;8904;-74
2021/09/27 08:17:06;;;;;;;;;45.50;38.25;;;;;;;;5044505;28;8925;-74
2021/09/27 08:19:36;;;;;;;;;28.50;22.00;;;;;;;;5037086;28;8873;-75
2021/09/27 08:22:05;;;;;;;;;22.00;20.50;;;;;;;;5036079;28;8849;-75
2021/09/27 08:24:33;;;;;;;;;14.50;14.50;;;;;;;;5035622;28;8840;-76
2021/09/27 08:27:00;;;;;;;;;12.75;8.00;;;;;;;;5036183;28;8902;-75
2021/09/27 08:29:28;;;;;;;;;9.00;9.00;;;;;;;;5031227;28;8867;-78
2021/09/27 08:31:57;;;;;;;;;8.00;7.00;;;;;;;;5019148;28;8807;-76
2021/09/27 08:34:24;;;;;;;;;44.00;37.00;;;;;;;;5026965;28;8882;-76
2021/09/27 08:36:51;;;;;;;;;50.33;42.67;;;;;;;;5039301;28;8902;-77
2021/09/27 08:39:22;;;;;;;;;25.50;23.25;;;;;;;;5035363;28;9226;-76
2021/09/27 08:41:52;;;;;;;;;32.00;31.00;;;;;;;;5041160;28;8897;-76
2021/09/27 08:44:48;;;;;;;;;50.00;43.00;;;;;;;;5037891;28;8996;-75
2021/09/27 08:47:22;;;;;;;;;30.75;30.75;;;;;;;;5043236;28;8886;-75
2021/09/27 08:49:53;;;;;;;;;33.75;32.75;;;;;;;;5026170;28;8902;-75
2021/09/27 08:52:22;;;;;;;;;22.75;21.25;;;;;;;;5013739;28;8972;-74
2021/09/27 08:54:52;;;;;;;;;17.25;13.00;;;;;;;;5029298;28;8979;-75
2021/09/27 08:57:35;;;;;;;;;25.50;22.25;;;;;;;;5040147;28;8909;-77
2021/09/27 09:00:10;;;;;;;;;15.50;15.50;;;;;;;;5040353;28;8852;-75
2021/09/27 09:02:56;;;;;;;;;12.25;10.25;;;;;;;;5033552;28;8920;-75
2021/09/27 09:05:27;;;;;;;;;16.00;16.00;;;;;;;;5025083;28;8872;-75
2021/09/27 09:08:01;;;;;;;;;11.75;11.75;;;;;;;;5036708;28;9756;-74
2021/09/27 09:10:42;;;;;;;;;10.00;10.00;;;;;;;;5033833;28;8871;-76
2021/09/27 09:13:12;;;;;;;;;16.00;16.00;;;;;;;;5038257;28;8862;-76
2021/09/27 09:15:42;;;;;;;;;17.00;14.00;;;;;;;;5038804;28;8874;-76
2021/09/27 09:18:15;;;;;;;;;15.00;12.75;;;;;;;;5017339;28;8923;-76
2021/09/27 09:20:51;;;;;;;;;20.00;17.75;;;;;;;;5037446;28;8873;-76
2021/09/27 09:23:25;;;;;;;;;9.25;7.00;;;;;;;;5036893;28;9725;-75
2021/09/27 09:25:55;;;;;;;;;11.75;11.75;;;;;;;;5015791;28;8945;-78
2021/09/27 09:28:22;;;;;;;;;7.75;7.75;;;;;;;;5036497;28;8874;-77
2021/09/27 09:30:55;;;;;;;;;11.75;11.50;;;;;;;;5015420;28;8831;-77
2021/09/27 09:33:38;;;;;;;;;13.75;9.00;;;;;;;;5024731;28;9702;-78
2021/09/27 09:36:07;;;;;;;;;13.25;12.50;;;;;;;;5034718;28;9042;-78
2021/09/27 09:38:35;;;;;;;;;11.75;9.25;;;;;;;;5031946;28;8849;-76
2021/09/27 09:41:03;;;;;;;;;9.00;9.00;;;;;;;;5029616;28;8892;-75
2021/09/27 09:43:32;;;;;;;;;7.50;6.50;;;;;;;;5036009;28;8996;-76
2021/09/27 09:46:07;;;;;;;;;11.00;9.75;;;;;;;;5029866;28;8989;-76
2021/09/27 09:48:38;;;;;;;;;8.50;8.50;;;;;;;;5040012;28;8866;-76
2021/09/27 09:51:25;;;;;;;;;6.25;6.25;;;;;;;;5029449;28;8890;-76
2021/09/27 09:54:09;;;;;;;;;5.75;5.75;;;;;;;;5030075;28;8862;-76
2021/09/27 09:56:39;;;;;;;;;8.25;7.75;;;;;;;;5041707;28;8881;-76
2021/09/27 09:59:24;;;;;;;;;13.75;13.75;;;;;;;;5042144;28;8879;-76
2021/09/27 10:01:57;;;;;;;;;8.00;8.00;;;;;;;;5042912;28;8815;-76
2021/09/27 10:04:29;;;;;;;;;6.25;6.25;;;;;;;;5034472;28;8889;-73
2021/09/27 10:07:05;;;;;;;;;23.25;23.25;;;;;;;;5041118;28;8866;-80
2021/09/27 10:09:34;;;;;;;;;8.75;8.75;;;;;;;;5052143;28;9003;-75
2021/09/27 10:12:04;;;;;;;;;7.25;7.25;;;;;;;;5050536;28;8913;-76
2021/09/27 10:14:38;;;;;;;;;11.25;11.25;;;;;;;;5052146;28;8882;-77
2021/09/27 10:17:14;;;;;;;;;7.75;7.25;;;;;;;;5052943;28;8843;-76
2021/09/27 10:19:55;;;;;;;;;10.75;8.25;;;;;;;;5047652;28;8907;-74
2021/09/27 10:22:25;;;;;;;;;8.50;8.50;;;;;;;;5044213;28;8884;-74
2021/09/27 10:24:55;;;;;;;;;10.25;8.75;;;;;;;;5044682;28;8858;-75
2021/09/27 10:27:28;;;;;;;;;8.00;8.00;;;;;;;;5047067;28;8894;-74
2021/09/27 10:29:57;;;;;;;;;8.50;8.50;;;;;;;;5039465;28;8878;-74
2021/09/27 10:35:30;;;;;;;;;8.00;8.00;;;;;;;;5042378;28;8920;-76
2021/09/27 10:38:03;;;;;;;;;9.25;8.50;;;;;;;;5038878;28;8873;-75
2021/09/27 10:40:33;;;;;;;;;9.25;9.25;;;;;;;;5055316;28;8847;-76
2021/09/27 10:43:01;;;;;;;;;9.75;8.25;;;;;;;;5039283;28;9401;-75
2021/09/27 10:45:30;;;;;;;;;7.75;7.50;;;;;;;;5032963;28;8902;-74
2021/09/27 10:48:00;;;;;;;;;9.75;8.00;;;;;;;;5033654;28;8858;-75
2021/09/27 10:50:33;;;;;;;;;7.25;7.25;;;;;;;;5045290;28;9635;-74
2021/09/27 10:53:08;;;;;;;;;11.00;8.00;;;;;;;;5044133;28;8826;-74
2021/09/27 10:55:49;;;;;;;;;9.00;8.75;;;;;;;;5040768;28;8878;-74
2021/09/27 10:58:31;;;;;;;;;12.00;9.75;;;;;;;;5041140;28;8883;-73
2021/09/27 11:00:58;;;;;;;;;7.00;7.00;;;;;;;;5032169;28;8795;-74
2021/09/27 11:03:30;;;;;;;;;7.00;7.00;;;;;;;;5041480;28;8864;-74
2021/09/27 11:06:02;;;;;;;;;8.00;7.50;;;;;;;;5044804;28;8855;-73
2021/09/27 11:08:51;;;;;;;;;7.50;7.50;;;;;;;;5031494;28;8874;-73
2021/09/27 11:11:36;;;;;;;;;4.75;4.75;;;;;;;;5027032;28;9690;-72
2021/09/27 11:14:21;;;;;;;;;7.50;7.50;;;;;;;;5017514;28;8879;-74
2021/09/27 11:16:56;;;;;;;;;5.00;5.00;;;;;;;;5037423;28;8887;-74
2021/09/27 11:19:35;;;;;;;;;7.00;6.00;;;;;;;;5038034;28;8977;-72
2021/09/27 11:22:34;;;;;;;;;6.00;6.00;;;;;;;;5039719;28;8870;-72
2021/09/27 11:25:14;;;;;;;;;7.00;7.00;;;;;;;;5035247;28;8876;-73
2021/09/27 11:27:42;;;;;;;;;6.00;6.00;;;;;;;;5040042;28;8855;-72
2021/09/27 11:30:37;;;;;;;;;5.75;5.75;;;;;;;;5033802;28;8863;-73
2021/09/27 11:33:06;;;;;;;;;2.00;2.00;;;;;;;;5032192;28;8880;-75
2021/09/27 11:35:44;;;;;;;;;0.00;0.00;;;;;;;;5031069;28;8901;-73
2021/09/27 11:38:33;;;;;;;;;0.25;0.25;;;;;;;;5037962;28;8863;-74
2021/09/27 11:41:26;;;;;;;;;0.00;0.00;;;;;;;;5045657;28;8889;-73
2021/09/27 11:44:05;;;;;;;;;0.00;0.00;;;;;;;;5044152;28;8870;-74
2021/09/27 11:46:34;;;;;;;;;0.00;0.00;;;;;;;;5041078;28;8872;-74
2021/09/27 11:49:28;;;;;;;;;0.00;0.00;;;;;;;;5045261;28;8862;-74
2021/09/27 11:52:08;;;;;;;;;0.00;0.00;;;;;;;;5029667;28;8866;-74
2021/09/27 11:54:48;;;;;;;;;0.00;0.00;;;;;;;;5038780;28;8889;-73
2021/09/27 11:57:26;;;;;;;;;0.00;0.00;;;;;;;;5033239;28;9672;-75
2021/09/27 12:00:02;;;;;;;;;0.00;0.00;;;;;;;;5045816;28;9616;-74
2021/09/27 12:02:39;;;;;;;;;1.00;0.00;;;;;;;;5044976;28;8810;-74
2021/09/27 12:05:32;;;;;;;;;0.25;0.00;;;;;;;;5025302;28;8994;-74
2021/09/27 12:08:05;;;;;;;;;0.00;0.00;;;;;;;;5040002;28;9636;-73
2021/09/27 12:10:41;;;;;;;;;2.00;0.00;;;;;;;;5035643;28;8882;-74
2021/09/27 12:13:16;;;;;;;;;0.25;0.00;;;;;;;;5025365;28;8876;-74
2021/09/27 12:15:47;;;;;;;;;0.00;0.00;;;;;;;;5033245;28;8861;-74
2021/09/27 12:18:40;;;;;;;;;0.00;0.00;;;;;;;;5041473;28;8964;-74
2021/09/27 12:21:13;;;;;;;;;0.00;0.00;;;;;;;;5020784;28;8983;-75
2021/09/27 12:23:47;;;;;;;;;0.50;0.00;;;;;;;;5037051;28;8918;-75
2021/09/27 12:26:36;;;;;;;;;0.25;0.25;;;;;;;;5040109;28;8875;-74
2021/09/27 12:29:12;;;;;;;;;1.00;1.00;;;;;;;;5032517;28;8871;-74
2021/09/27 12:31:45;;;;;;;;;0.00;0.00;;;;;;;;5034409;28;8895;-74
2021/09/27 12:34:15;;;;;;;;;0.00;0.00;;;;;;;;5035568;28;8891;-74
2021/09/27 12:36:42;;;;;;;;;0.00;0.00;;;;;;;;5033666;28;8923;-78
2021/09/27 12:39:10;;;;;;;;;0.00;0.00;;;;;;;;5034088;28;8907;-75
2021/09/27 12:41:40;;;;;;;;;0.00;0.00;;;;;;;;5023406;28;8875;-76
2021/09/27 12:44:13;;;;;;;;;0.00;0.00;;;;;;;;5039256;28;9000;-76
2021/09/27 12:46:41;;;;;;;;;1.00;0.00;;;;;;;;5027424;28;8852;-76
2021/09/27 12:49:10;;;;;;;;;0.00;0.00;;;;;;;;5043292;28;8911;-76
2021/09/27 12:51:42;;;;;;;;;0.50;0.50;;;;;;;;5032481;28;8908;-75
2021/09/27 12:54:18;;;;;;;;;0.00;0.00;;;;;;;;5037960;28;8925;-75
2021/09/27 12:56:47;;;;;;;;;0.00;0.00;;;;;;;;5037155;28;8910;-77
2021/09/27 12:59:17;;;;;;;;;0.00;0.00;;;;;;;;5032760;28;8917;-78
2021/09/27 13:01:48;;;;;;;;;0.00;0.00;;;;;;;;5033004;28;8828;-78
2021/09/27 13:04:22;;;;;;;;;0.00;0.00;;;;;;;;5031931;28;8897;-76
2021/09/27 13:06:52;;;;;;;;;1.00;0.00;;;;;;;;5039818;28;8869;-76
2021/09/27 13:09:23;;;;;;;;;0.00;0.00;;;;;;;;5034537;28;8853;-77
2021/09/27 13:12:10;;;;;;;;;0.00;0.00;;;;;;;;5042577;28;8903;-76
2021/09/27 13:14:42;;;;;;;;;2.20;0.00;;;;;;;;5040243;28;8866;-77
2021/09/27 13:17:13;;;;;;;;;0.00;0.00;;;;;;;;5041482;28;8870;-77
2021/09/27 13:19:43;;;;;;;;;0.00;0.00;;;;;;;;5031927;28;8889;-78
2021/09/27 13:22:16;;;;;;;;;0.00;0.00;;;;;;;;5034521;28;8873;-77
2021/09/27 13:24:46;;;;;;;;;1.40;0.00;;;;;;;;5039398;28;8885;-78
2021/09/27 13:27:17;;;;;;;;;0.00;0.00;;;;;;;;5039444;28;8951;-76
2021/09/27 13:29:48;;;;;;;;;1.20;0.00;;;;;;;;5040077;28;8866;-75
2021/09/27 13:32:32;;;;;;;;;0.80;0.00;;;;;;;;5028925;28;8829;-77
2021/09/27 13:35:21;;;;;;;;;0.00;0.00;;;;;;;;5039118;28;8882;-77
2021/09/27 13:38:01;;;;;;;;;0.00;0.00;;;;;;;;5018980;28;8891;-77
2021/09/27 13:40:32;;;;;;;;;0.00;0.00;;;;;;;;5032767;28;9004;-76
2021/09/27 13:43:23;;;;;;;;;0.00;0.00;;;;;;;;5033430;28;8890;-77
2021/09/27 13:45:53;;;;;;;;;0.60;0.00;;;;;;;;5028183;28;8959;-76
2021/09/27 13:48:20;;;;;;;;;0.20;0.00;;;;;;;;5042846;28;8862;-76
2021/09/27 13:50:50;;;;;;;;;1.00;1.00;;;;;;;;5037655;28;9012;-76
2021/09/27 13:53:22;;;;;;;;;0.60;0.60;;;;;;;;5039893;28;8897;-75
2021/09/27 13:55:50;;;;;;;;;0.60;0.00;;;;;;;;5036029;28;8862;-76
2021/09/27 13:58:21;;;;;;;;;0.00;0.00;;;;;;;;5046247;28;8870;-76
2021/09/27 14:00:49;;;;;;;;;0.00;0.00;;;;;;;;5036260;28;8821;-76
2021/09/27 14:03:17;;;;;;;;;0.00;0.00;;;;;;;;5046841;28;8864;-75
2021/09/27 14:05:44;;;;;;;;;0.40;0.00;;;;;;;;5030669;28;9026;-76
2021/09/27 14:08:16;;;;;;;;;0.00;0.00;;;;;;;;5037808;28;8975;-76
2021/09/27 14:10:44;;;;;;;;;0.00;0.00;;;;;;;;5033482;28;9002;-76
2021/09/27 14:13:13;;;;;;;;;0.00;0.00;;;;;;;;5036019;28;9668;-75
2021/09/27 14:15:45;;;;;;;;;1.00;0.00;;;;;;;;5039930;28;8875;-76
2021/09/27 14:18:13;;;;;;;;;1.00;1.00;;;;;;;;5036656;28;8900;-76
2021/09/27 14:20:41;;;;;;;;;0.00;0.00;;;;;;;;5028870;28;8908;-76
2021/09/27 14:23:09;;;;;;;;;0.00;0.00;;;;;;;;5040797;28;8877;-76
2021/09/27 14:25:36;;;;;;;;;0.00;0.00;;;;;;;;5035049;28;8913;-76
2021/09/27 14:28:04;;;;;;;;;1.60;0.00;;;;;;;;5041364;28;8985;-76
2021/09/27 14:30:32;;;;;;;;;0.00;0.00;;;;;;;;5016912;28;8794;-76
2021/09/27 14:33:00;;;;;;;;;0.00;0.00;;;;;;;;5038827;28;8973;-76
2021/09/27 14:35:28;;;;;;;;;0.80;0.00;;;;;;;;5042271;28;8874;-76
2021/09/27 14:37:55;;;;;;;;;0.00;0.00;;;;;;;;5043093;28;8894;-74
2021/09/27 14:40:24;;;;;;;;;0.00;0.00;;;;;;;;5046408;28;9001;-77
2021/09/27 14:42:52;;;;;;;;;0.00;0.00;;;;;;;;5045822;28;8839;-76
2021/09/27 14:45:20;;;;;;;;;0.00;0.00;;;;;;;;5042091;28;8878;-77
2021/09/27 14:47:48;;;;;;;;;0.00;0.00;;;;;;;;5042140;28;9027;-76
2021/09/27 14:50:20;;;;;;;;;0.00;0.00;;;;;;;;5041518;28;8872;-76
2021/09/27 14:52:48;;;;;;;;;1.80;0.00;;;;;;;;5058248;28;8867;-77
2021/09/27 14:55:16;;;;;;;;;0.00;0.00;;;;;;;;5044460;28;8905;-76
2021/09/27 14:57:45;;;;;;;;;0.00;0.00;;;;;;;;5046550;28;8886;-77
2021/09/27 15:00:15;;;;;;;;;0.00;0.00;;;;;;;;5026487;28;8893;-77
2021/09/27 15:02:43;;;;;;;;;0.00;0.00;;;;;;;;5043495;28;8877;-76
2021/09/27 15:05:11;;;;;;;;;0.00;0.00;;;;;;;;5044337;28;9655;-74
2021/09/27 15:07:41;;;;;;;;;0.00;0.00;;;;;;;;5046133;28;8880;-76
2021/09/27 15:10:12;;;;;;;;;3.00;0.00;;;;;;;;5039241;28;8873;-76
2021/09/27 15:12:40;;;;;;;;;0.00;0.00;;;;;;;;5037977;28;10051;-76
2021/09/27 15:15:09;;;;;;;;;0.00;0.00;;;;;;;;5039943;28;8898;-78
2021/09/27 15:17:36;;;;;;;;;0.00;0.00;;;;;;;;5028934;28;8919;-76
2021/09/27 15:20:06;;;;;;;;;0.00;0.00;;;;;;;;5035718;28;8874;-75
2021/09/27 15:22:35;;;;;;;;;0.00;0.00;;;;;;;;5048717;28;8888;-76